sensor_id;sensor_type;location;lat;lon;timestamp;pressure;altitude;pressure_sealevel;temperature;humidity
64713;BME280;51140;45.340;5.980;2023-08-07T00:00:21;98625.44;;;13.91;75.71
64713;BME280;51140;45.340;5.980;2023-08-07T00:02:47;98623.09;;;14.28;74.21
64713;BME280;51140;45.340;5.980;2023-08-07T00:05:12;98616.34;;;13.87;74.56
64713;BME280;51140;45.340;5.980;2023-08-07T00:07:38;98618.50;;;13.85;73.91
64713;BME280;51140;45.340;5.980;2023-08-07T00:10:04;98620.47;;;14.23;73.58
64713;BME280;51140;45.340;5.980;2023-08-07T00:12:29;98627.16;;;14.21;73.32
64713;BME280;51140;45.340;5.980;2023-08-07T00:14:54;98624.38;;;13.92;74.69
64713;BME280;51140;45.340;5.980;2023-08-07T00:17:20;98620.66;;;13.83;74.97
64713;BME280;51140;45.340;5.980;2023-08-07T00:19:45;98621.84;;;14.11;73.40
64713;BME280;51140;45.340;5.980;2023-08-07T00:22:11;98611.56;;;13.89;73.09
64713;BME280;51140;45.340;5.980;2023-08-07T00:24:36;98609.44;;;14.40;72.63
64713;BME280;51140;45.340;5.980;2023-08-07T00:27:01;98616.91;;;13.89;74.15
64713;BME280;51140;45.340;5.980;2023-08-07T00:29:28;98618.66;;;14.09;74.29
64713;BME280;51140;45.340;5.980;2023-08-07T00:31:53;98608.00;;;14.09;74.49
64713;BME280;51140;45.340;5.980;2023-08-07T00:34:18;98609.28;;;13.57;76.04
64713;BME280;51140;45.340;5.980;2023-08-07T00:36:44;98607.94;;;13.50;77.04
64713;BME280;51140;45.340;5.980;2023-08-07T00:39:09;98601.59;;;13.36;77.84
64713;BME280;51140;45.340;5.980;2023-08-07T00:41:34;98602.16;;;13.28;78.60
64713;BME280;51140;45.340;5.980;2023-08-07T00:44:00;98599.16;;;13.54;77.13
64713;BME280;51140;45.340;5.980;2023-08-07T00:46:26;98604.91;;;13.87;75.33
64713;BME280;51140;45.340;5.980;2023-08-07T00:48:52;98605.06;;;13.36;77.34
64713;BME280;51140;45.340;5.980;2023-08-07T00:51:18;98593.06;;;13.44;77.56
64713;BME280;51140;45.340;5.980;2023-08-07T00:53:44;98588.22;;;13.51;76.46
64713;BME280;51140;45.340;5.980;2023-08-07T00:56:10;98590.31;;;13.64;75.68
64713;BME280;51140;45.340;5.980;2023-08-07T00:58:36;98593.03;;;13.49;75.39
64713;BME280;51140;45.340;5.980;2023-08-07T01:01:01;98594.13;;;13.38;75.70
64713;BME280;51140;45.340;5.980;2023-08-07T01:03:27;98589.03;;;14.10;73.99
64713;BME280;51140;45.340;5.980;2023-08-07T01:05:52;98606.56;;;13.72;74.96
64713;BME280;51140;45.340;5.980;2023-08-07T01:08:17;98602.66;;;13.40;75.67
64713;BME280;51140;45.340;5.980;2023-08-07T01:13:51;98587.91;;;13.62;74.55
64713;BME280;51140;45.340;5.980;2023-08-07T01:16:35;98586.53;;;13.75;74.65
64713;BME280;51140;45.340;5.980;2023-08-07T01:19:04;98579.56;;;13.79;74.56
64713;BME280;51140;45.340;5.980;2023-08-07T01:21:32;98585.53;;;13.61;74.16
64713;BME280;51140;45.340;5.980;2023-08-07T01:23:57;98586.31;;;13.61;73.74
64713;BME280;51140;45.340;5.980;2023-08-07T01:26:23;98586.78;;;13.78;73.61
64713;BME280;51140;45.340;5.980;2023-08-07T01:31:53;98594.69;;;13.99;72.72
64713;BME280;51140;45.340;5.980;2023-08-07T01:34:21;98591.22;;;13.34;75.05
64713;BME280;51140;45.340;5.980;2023-08-07T01:36:48;98599.00;;;13.15;76.42
64713;BME280;51140;45.340;5.980;2023-08-07T01:39:16;98601.63;;;13.00;76.17
64713;BME280;51140;45.340;5.980;2023-08-07T01:41:43;98597.91;;;13.11;75.88
64713;BME280;51140;45.340;5.980;2023-08-07T01:44:08;98595.19;;;13.42;74.80
64713;BME280;51140;45.340;5.980;2023-08-07T01:46:34;98590.44;;;13.13;77.49
64713;BME280;51140;45.340;5.980;2023-08-07T01:48:59;98599.53;;;13.12;76.64
64713;BME280;51140;45.340;5.980;2023-08-07T01:51:24;98600.28;;;12.93;76.09
64713;BME280;51140;45.340;5.980;2023-08-07T01:53:50;98598.97;;;13.05;76.46
64713;BME280;51140;45.340;5.980;2023-08-07T01:56:15;98602.69;;;13.04;76.54
64713;BME280;51140;45.340;5.980;2023-08-07T01:58:40;98601.38;;;12.97;76.65
64713;BME280;51140;45.340;5.980;2023-08-07T02:01:06;98606.69;;;13.27;75.41
64713;BME280;51140;45.340;5.980;2023-08-07T02:03:31;98592.31;;;13.08;76.08
64713;BME280;51140;45.340;5.980;2023-08-07T02:05:56;98596.81;;;13.38;75.67
64713;BME280;51140;45.340;5.980;2023-08-07T02:08:22;98605.41;;;13.09;76.13
64713;BME280;51140;45.340;5.980;2023-08-07T02:10:47;98597.34;;;13.25;76.14
64713;BME280;51140;45.340;5.980;2023-08-07T02:13:13;98597.88;;;13.22;76.31
64713;BME280;51140;45.340;5.980;2023-08-07T02:15:38;98590.66;;;13.42;75.88
64713;BME280;51140;45.340;5.980;2023-08-07T02:18:03;98579.34;;;13.70;75.11
64713;BME280;51140;45.340;5.980;2023-08-07T02:20:29;98577.53;;;13.56;74.53
64713;BME280;51140;45.340;5.980;2023-08-07T02:22:54;98577.97;;;13.83;73.75
64713;BME280;51140;45.340;5.980;2023-08-07T02:25:19;98578.53;;;13.70;73.71
64713;BME280;51140;45.340;5.980;2023-08-07T02:27:45;98580.13;;;13.81;73.93
64713;BME280;51140;45.340;5.980;2023-08-07T02:30:10;98581.34;;;13.25;75.94
64713;BME280;51140;45.340;5.980;2023-08-07T02:32:36;98586.94;;;13.43;76.53
64713;BME280;51140;45.340;5.980;2023-08-07T02:35:01;98586.72;;;13.19;78.05
64713;BME280;51140;45.340;5.980;2023-08-07T02:37:27;98588.84;;;12.87;78.50
64713;BME280;51140;45.340;5.980;2023-08-07T02:39:52;98582.72;;;12.61;79.74
64713;BME280;51140;45.340;5.980;2023-08-07T02:42:19;98584.06;;;12.74;79.58
64713;BME280;51140;45.340;5.980;2023-08-07T02:44:44;98587.28;;;12.81;79.69
64713;BME280;51140;45.340;5.980;2023-08-07T02:47:09;98599.53;;;12.72;79.53
64713;BME280;51140;45.340;5.980;2023-08-07T02:49:35;98588.88;;;12.72;79.06
64713;BME280;51140;45.340;5.980;2023-08-07T02:52:00;98593.91;;;12.48;78.23
64713;BME280;51140;45.340;5.980;2023-08-07T02:54:26;98596.06;;;12.77;76.79
64713;BME280;51140;45.340;5.980;2023-08-07T02:56:51;98595.25;;;12.86;77.26
64713;BME280;51140;45.340;5.980;2023-08-07T02:59:16;98587.81;;;12.58;77.30
64713;BME280;51140;45.340;5.980;2023-08-07T03:01:43;98583.81;;;12.66;77.77
64713;BME280;51140;45.340;5.980;2023-08-07T03:04:09;98586.97;;;12.88;77.73
64713;BME280;51140;45.340;5.980;2023-08-07T03:06:34;98584.06;;;13.14;78.06
64713;BME280;51140;45.340;5.980;2023-08-07T03:09:00;98591.78;;;12.76;79.56
64713;BME280;51140;45.340;5.980;2023-08-07T03:11:25;98586.72;;;12.89;80.22
64713;BME280;51140;45.340;5.980;2023-08-07T03:13:51;98586.19;;;13.02;79.26
64713;BME280;51140;45.340;5.980;2023-08-07T03:16:16;98587.25;;;12.96;78.76
64713;BME280;51140;45.340;5.980;2023-08-07T03:18:41;98594.47;;;12.86;78.56
64713;BME280;51140;45.340;5.980;2023-08-07T03:21:07;98581.13;;;13.01;78.62
64713;BME280;51140;45.340;5.980;2023-08-07T03:23:32;98587.25;;;12.86;79.67
64713;BME280;51140;45.340;5.980;2023-08-07T03:26:09;98590.97;;;13.10;79.36
64713;BME280;51140;45.340;5.980;2023-08-07T03:28:35;98594.44;;;12.96;80.45
64713;BME280;51140;45.340;5.980;2023-08-07T03:31:00;98594.44;;;12.71;81.94
64713;BME280;51140;45.340;5.980;2023-08-07T03:33:26;98597.13;;;12.55;83.07
64713;BME280;51140;45.340;5.980;2023-08-07T03:35:52;98608.03;;;12.69;83.18
64713;BME280;51140;45.340;5.980;2023-08-07T03:38:17;98607.22;;;12.38;83.52
64713;BME280;51140;45.340;5.980;2023-08-07T03:40:43;98609.09;;;12.53;83.77
64713;BME280;51140;45.340;5.980;2023-08-07T03:43:09;98600.31;;;12.62;84.57
64713;BME280;51140;45.340;5.980;2023-08-07T03:45:34;98604.84;;;12.57;85.40
64713;BME280;51140;45.340;5.980;2023-08-07T03:47:59;98601.34;;;12.41;86.35
64713;BME280;51140;45.340;5.980;2023-08-07T03:50:25;98600.59;;;12.61;86.01
64713;BME280;51140;45.340;5.980;2023-08-07T03:52:50;98603.50;;;12.54;85.27
64713;BME280;51140;45.340;5.980;2023-08-07T03:55:16;98612.81;;;12.67;84.28
64713;BME280;51140;45.340;5.980;2023-08-07T03:57:41;98609.59;;;12.50;84.47
64713;BME280;51140;45.340;5.980;2023-08-07T04:00:07;98613.91;;;12.61;83.66
64713;BME280;51140;45.340;5.980;2023-08-07T04:02:33;98614.09;;;12.14;83.94
64713;BME280;51140;45.340;5.980;2023-08-07T04:04:58;98609.06;;;12.28;83.61
64713;BME280;51140;45.340;5.980;2023-08-07T04:07:23;98601.34;;;12.36;82.11
64713;BME280;51140;45.340;5.980;2023-08-07T04:09:49;98606.41;;;12.33;82.07
64713;BME280;51140;45.340;5.980;2023-08-07T04:12:14;98612.56;;;12.43;81.66
64713;BME280;51140;45.340;5.980;2023-08-07T04:14:39;98608.28;;;12.32;82.96
64713;BME280;51140;45.340;5.980;2023-08-07T04:17:05;98609.34;;;12.41;82.04
64713;BME280;51140;45.340;5.980;2023-08-07T04:19:30;98610.41;;;12.50;81.09
64713;BME280;51140;45.340;5.980;2023-08-07T04:21:56;98605.38;;;12.64;80.26
64713;BME280;51140;45.340;5.980;2023-08-07T04:24:21;98596.88;;;12.72;79.11
64713;BME280;51140;45.340;5.980;2023-08-07T04:26:46;98588.59;;;12.58;79.98
64713;BME280;51140;45.340;5.980;2023-08-07T04:29:12;98601.63;;;12.30;82.01
64713;BME280;51140;45.340;5.980;2023-08-07T04:31:37;98603.19;;;12.36;83.01
64713;BME280;51140;45.340;5.980;2023-08-07T04:34:03;98602.19;;;12.47;82.98
64713;BME280;51140;45.340;5.980;2023-08-07T04:36:28;98602.94;;;12.47;84.13
64713;BME280;51140;45.340;5.980;2023-08-07T04:38:53;98604.00;;;12.26;85.32
64713;BME280;51140;45.340;5.980;2023-08-07T04:41:20;98606.34;;;12.07;85.66
64713;BME280;51140;45.340;5.980;2023-08-07T04:43:46;98611.13;;;12.05;85.45
64713;BME280;51140;45.340;5.980;2023-08-07T04:46:13;98623.63;;;12.00;85.53
64713;BME280;51140;45.340;5.980;2023-08-07T04:48:38;98623.09;;;12.03;85.98
64713;BME280;51140;45.340;5.980;2023-08-07T04:51:04;98619.34;;;11.94;85.77
64713;BME280;51140;45.340;5.980;2023-08-07T04:53:29;98609.28;;;12.16;85.22
64713;BME280;51140;45.340;5.980;2023-08-07T04:55:54;98620.44;;;11.98;84.79
64713;BME280;51140;45.340;5.980;2023-08-07T04:58:20;98611.88;;;11.91;84.35
64713;BME280;51140;45.340;5.980;2023-08-07T05:00:45;98606.34;;;12.02;83.58
64713;BME280;51140;45.340;5.980;2023-08-07T05:03:11;98615.41;;;12.12;83.84
64713;BME280;51140;45.340;5.980;2023-08-07T05:05:36;98619.63;;;11.92;83.99
64713;BME280;51140;45.340;5.980;2023-08-07T05:08:02;98615.88;;;11.88;83.93
64713;BME280;51140;45.340;5.980;2023-08-07T05:10:27;98608.47;;;12.05;82.95
64713;BME280;51140;45.340;5.980;2023-08-07T05:12:53;98608.25;;;12.17;81.28
64713;BME280;51140;45.340;5.980;2023-08-07T05:15:22;98604.19;;;12.04;81.06
64713;BME280;51140;45.340;5.980;2023-08-07T05:17:48;98605.00;;;12.10;81.96
64713;BME280;51140;45.340;5.980;2023-08-07T05:20:13;98608.00;;;12.39;81.12
64713;BME280;51140;45.340;5.980;2023-08-07T05:22:39;98616.50;;;12.16;82.68
64713;BME280;51140;45.340;5.980;2023-08-07T05:25:04;98614.94;;;12.35;82.59
64713;BME280;51140;45.340;5.980;2023-08-07T05:27:30;98612.75;;;12.07;83.93
64713;BME280;51140;45.340;5.980;2023-08-07T05:29:55;98614.31;;;11.97;84.52
64713;BME280;51140;45.340;5.980;2023-08-07T05:32:20;98609.53;;;12.04;84.80
64713;BME280;51140;45.340;5.980;2023-08-07T05:34:46;98606.16;;;12.39;83.98
64713;BME280;51140;45.340;5.980;2023-08-07T05:37:11;98612.28;;;12.30;83.86
64713;BME280;51140;45.340;5.980;2023-08-07T05:39:37;98614.09;;;12.14;85.09
64713;BME280;51140;45.340;5.980;2023-08-07T05:42:02;98619.16;;;12.16;85.01
64713;BME280;51140;45.340;5.980;2023-08-07T05:44:29;98626.00;;;11.91;86.49
64713;BME280;51140;45.340;5.980;2023-08-07T05:46:54;98631.00;;;11.83;85.84
64713;BME280;51140;45.340;5.980;2023-08-07T05:49:20;98625.84;;;11.61;86.50
64713;BME280;51140;45.340;5.980;2023-08-07T05:51:46;98625.47;;;11.94;85.54
64713;BME280;51140;45.340;5.980;2023-08-07T05:54:11;98634.25;;;11.90;85.84
64713;BME280;51140;45.340;5.980;2023-08-07T05:56:37;98630.28;;;12.02;85.25
64713;BME280;51140;45.340;5.980;2023-08-07T05:59:02;98634.03;;;12.07;85.21
64713;BME280;51140;45.340;5.980;2023-08-07T06:01:28;98623.41;;;12.17;84.49
64713;BME280;51140;45.340;5.980;2023-08-07T06:03:58;98632.88;;;11.87;84.96
64713;BME280;51140;45.340;5.980;2023-08-07T06:06:25;98628.91;;;11.90;84.76
64713;BME280;51140;45.340;5.980;2023-08-07T06:08:51;98640.91;;;11.92;84.49
64713;BME280;51140;45.340;5.980;2023-08-07T06:11:16;98639.28;;;11.96;83.77
64713;BME280;51140;45.340;5.980;2023-08-07T06:13:42;98636.63;;;11.91;83.00
64713;BME280;51140;45.340;5.980;2023-08-07T06:16:08;98638.28;;;12.07;82.68
64713;BME280;51140;45.340;5.980;2023-08-07T06:18:33;98647.28;;;12.01;82.04
64713;BME280;51140;45.340;5.980;2023-08-07T06:20:59;98657.69;;;12.03;82.42
64713;BME280;51140;45.340;5.980;2023-08-07T06:23:24;98648.44;;;12.31;81.53
64713;BME280;51140;45.340;5.980;2023-08-07T06:25:50;98653.31;;;12.59;80.48
64713;BME280;51140;45.340;5.980;2023-08-07T06:28:15;98657.00;;;12.38;80.50
64713;BME280;51140;45.340;5.980;2023-08-07T06:30:40;98655.16;;;12.58;81.24
64713;BME280;51140;45.340;5.980;2023-08-07T06:33:06;98648.00;;;12.69;80.70
64713;BME280;51140;45.340;5.980;2023-08-07T06:35:37;98647.22;;;12.84;80.18
64713;BME280;51140;45.340;5.980;2023-08-07T06:38:02;98644.00;;;12.82;79.72
64713;BME280;51140;45.340;5.980;2023-08-07T06:40:28;98643.22;;;12.86;79.00
64713;BME280;51140;45.340;5.980;2023-08-07T06:42:53;98645.09;;;13.01;79.19
64713;BME280;51140;45.340;5.980;2023-08-07T06:45:19;98639.50;;;13.07;78.47
64713;BME280;51140;45.340;5.980;2023-08-07T06:47:45;98636.81;;;12.77;78.85
64713;BME280;51140;45.340;5.980;2023-08-07T06:50:10;98634.13;;;12.87;79.14
64713;BME280;51140;45.340;5.980;2023-08-07T06:52:35;98648.84;;;13.15;77.98
64713;BME280;51140;45.340;5.980;2023-08-07T06:55:01;98643.22;;;13.27;76.33
64713;BME280;51140;45.340;5.980;2023-08-07T06:57:27;98650.16;;;13.33;77.06
64713;BME280;51140;45.340;5.980;2023-08-07T06:59:52;98648.28;;;13.23;76.54
64713;BME280;51140;45.340;5.980;2023-08-07T07:02:17;98656.00;;;13.40;75.90
64713;BME280;51140;45.340;5.980;2023-08-07T07:04:43;98653.59;;;13.33;77.37
64713;BME280;51140;45.340;5.980;2023-08-07T07:07:08;98656.28;;;13.13;76.69
64713;BME280;51140;45.340;5.980;2023-08-07T07:09:33;98650.69;;;13.14;76.98
64713;BME280;51140;45.340;5.980;2023-08-07T07:11:59;98640.53;;;13.32;77.12
64713;BME280;51140;45.340;5.980;2023-08-07T07:14:24;98641.84;;;13.44;77.09
64713;BME280;51140;45.340;5.980;2023-08-07T07:16:50;98643.97;;;13.42;75.60
64713;BME280;51140;45.340;5.980;2023-08-07T07:19:15;98643.69;;;13.54;75.73
64713;BME280;51140;45.340;5.980;2023-08-07T07:21:41;98650.03;;;13.73;75.53
64713;BME280;51140;45.340;5.980;2023-08-07T07:24:07;98650.63;;;13.60;75.48
64713;BME280;51140;45.340;5.980;2023-08-07T07:26:32;98647.84;;;13.90;75.89
64713;BME280;51140;45.340;5.980;2023-08-07T07:28:57;98647.84;;;13.95;75.79
64713;BME280;51140;45.340;5.980;2023-08-07T07:31:23;98644.81;;;14.12;76.25
64713;BME280;51140;45.340;5.980;2023-08-07T07:33:48;98628.28;;;14.93;73.53
64713;BME280;51140;45.340;5.980;2023-08-07T07:36:17;98635.22;;;15.98;70.32
64713;BME280;51140;45.340;5.980;2023-08-07T07:38:47;98636.88;;;17.39;62.60
64713;BME280;51140;45.340;5.980;2023-08-07T07:41:13;98634.94;;;17.99;60.17
64713;BME280;51140;45.340;5.980;2023-08-07T07:43:39;98627.53;;;18.67;58.29
64713;BME280;51140;45.340;5.980;2023-08-07T07:46:04;98604.56;;;18.25;58.92
64713;BME280;51140;45.340;5.980;2023-08-07T07:48:30;98617.94;;;17.90;58.92
64713;BME280;51140;45.340;5.980;2023-08-07T07:50:59;98599.28;;;17.25;63.79
64713;BME280;51140;45.340;5.980;2023-08-07T07:53:25;98609.66;;;16.99;66.06
64713;BME280;51140;45.340;5.980;2023-08-07T07:55:51;98602.19;;;17.42;64.13
64713;BME280;51140;45.340;5.980;2023-08-07T07:58:16;98610.63;;;17.22;63.24
64713;BME280;51140;45.340;5.980;2023-08-07T08:00:41;98602.47;;;17.27;66.17
64713;BME280;51140;45.340;5.980;2023-08-07T08:03:07;98600.91;;;17.40;63.42
64713;BME280;51140;45.340;5.980;2023-08-07T08:05:33;98602.31;;;17.64;64.13
64713;BME280;51140;45.340;5.980;2023-08-07T08:08:00;98613.16;;;18.50;59.33
64713;BME280;51140;45.340;5.980;2023-08-07T08:10:26;98687.53;;;19.96;54.37
64713;BME280;51140;45.340;5.980;2023-08-07T08:12:54;98678.00;;;20.55;53.56
64713;BME280;51140;45.340;5.980;2023-08-07T08:15:20;98775.38;;;21.36;48.92
64713;BME280;51140;45.340;5.980;2023-08-07T08:17:46;98794.91;;;21.58;47.88
64713;BME280;51140;45.340;5.980;2023-08-07T08:20:11;98804.78;;;21.29;47.39
64713;BME280;51140;45.340;5.980;2023-08-07T08:22:40;98858.03;;;22.35;45.55
64713;BME280;51140;45.340;5.980;2023-08-07T08:25:05;98906.78;;;22.00;44.07
64713;BME280;51140;45.340;5.980;2023-08-07T08:27:32;98878.22;;;22.54;44.18
64713;BME280;51140;45.340;5.980;2023-08-07T08:29:57;98979.56;;;23.50;41.92
64713;BME280;51140;45.340;5.980;2023-08-07T08:32:22;98964.16;;;23.33;41.35
64713;BME280;51140;45.340;5.980;2023-08-07T08:34:48;99000.09;;;23.21;40.10
64713;BME280;51140;45.340;5.980;2023-08-07T08:37:15;99024.09;;;22.94;40.18
64713;BME280;51140;45.340;5.980;2023-08-07T08:39:40;99015.94;;;23.49;39.51
64713;BME280;51140;45.340;5.980;2023-08-07T08:42:07;98974.03;;;23.08;40.83
64713;BME280;51140;45.340;5.980;2023-08-07T08:44:36;98918.84;;;22.37;41.80
64713;BME280;51140;45.340;5.980;2023-08-07T08:47:03;98933.78;;;22.35;41.13
64713;BME280;51140;45.340;5.980;2023-08-07T08:49:33;98846.94;;;20.90;44.43
64713;BME280;51140;45.340;5.980;2023-08-07T08:52:00;98751.97;;;20.54;46.43
64713;BME280;51140;45.340;5.980;2023-08-07T08:54:27;98725.34;;;20.95;46.88
64713;BME280;51140;45.340;5.980;2023-08-07T08:56:55;98744.09;;;21.09;46.27
64713;BME280;51140;45.340;5.980;2023-08-07T08:59:21;98746.44;;;20.68;46.17
64713;BME280;51140;45.340;5.980;2023-08-07T09:01:48;98824.50;;;20.25;43.98
64713;BME280;51140;45.340;5.980;2023-08-07T09:04:13;98863.88;;;21.56;42.16
64713;BME280;51140;45.340;5.980;2023-08-07T09:06:39;98755.31;;;21.71;45.58
64713;BME280;51140;45.340;5.980;2023-08-07T09:09:05;98817.16;;;21.13;43.83
64713;BME280;51140;45.340;5.980;2023-08-07T09:11:32;98791.88;;;21.00;47.01
64713;BME280;51140;45.340;5.980;2023-08-07T09:14:00;98849.91;;;21.54;43.43
64713;BME280;51140;45.340;5.980;2023-08-07T09:16:28;98925.25;;;20.99;41.46
64713;BME280;51140;45.340;5.980;2023-08-07T09:18:53;98877.09;;;21.57;41.35
64713;BME280;51140;45.340;5.980;2023-08-07T09:21:21;98903.28;;;20.92;42.90
64713;BME280;51140;45.340;5.980;2023-08-07T09:23:46;98950.78;;;21.41;40.00
64713;BME280;51140;45.340;5.980;2023-08-07T09:26:12;98967.91;;;21.28;40.20
64713;BME280;51140;45.340;5.980;2023-08-07T09:28:37;98915.22;;;21.47;40.59
64713;BME280;51140;45.340;5.980;2023-08-07T09:31:06;98832.25;;;21.65;43.30
64713;BME280;51140;45.340;5.980;2023-08-07T09:33:33;98877.84;;;22.09;42.10
64713;BME280;51140;45.340;5.980;2023-08-07T09:36:02;98945.28;;;21.80;40.26
64713;BME280;51140;45.340;5.980;2023-08-07T09:38:28;98945.69;;;22.59;40.59
64713;BME280;51140;45.340;5.980;2023-08-07T09:40:57;98990.94;;;21.90;39.34
64713;BME280;51140;45.340;5.980;2023-08-07T09:43:23;98950.75;;;22.69;38.87
64713;BME280;51140;45.340;5.980;2023-08-07T09:45:48;98919.22;;;23.11;40.68
64713;BME280;51140;45.340;5.980;2023-08-07T09:48:22;98922.22;;;21.65;43.36
64713;BME280;51140;45.340;5.980;2023-08-07T09:50:49;98874.22;;;22.52;42.03
64713;BME280;51140;45.340;5.980;2023-08-07T09:53:15;98955.38;;;22.52;39.56
64713;BME280;51140;45.340;5.980;2023-08-07T09:55:40;98967.56;;;23.21;38.74
64713;BME280;51140;45.340;5.980;2023-08-07T09:58:08;98999.50;;;23.07;38.63
64713;BME280;51140;45.340;5.980;2023-08-07T10:00:34;99040.25;;;23.19;36.91
64713;BME280;51140;45.340;5.980;2023-08-07T10:03:01;98934.34;;;22.74;42.15
64713;BME280;51140;45.340;5.980;2023-08-07T10:05:27;98999.69;;;22.04;38.18
64713;BME280;51140;45.340;5.980;2023-08-07T10:07:53;98953.28;;;22.74;39.73
64713;BME280;51140;45.340;5.980;2023-08-07T10:10:20;99074.47;;;23.70;36.91
64713;BME280;51140;45.340;5.980;2023-08-07T10:12:46;99124.41;;;23.14;35.32
64713;BME280;51140;45.340;5.980;2023-08-07T10:15:14;99163.09;;;22.55;34.32
64713;BME280;51140;45.340;5.980;2023-08-07T10:17:40;99101.94;;;21.94;36.04
64713;BME280;51140;45.340;5.980;2023-08-07T10:20:06;99112.63;;;22.07;35.71
64713;BME280;51140;45.340;5.980;2023-08-07T10:22:34;99099.91;;;22.16;35.70
64713;BME280;51140;45.340;5.980;2023-08-07T10:25:06;99112.16;;;22.14;35.27
64713;BME280;51140;45.340;5.980;2023-08-07T10:27:34;99095.34;;;21.86;36.11
64713;BME280;51140;45.340;5.980;2023-08-07T10:30:04;99073.50;;;22.31;36.84
64713;BME280;51140;45.340;5.980;2023-08-07T10:32:31;99103.13;;;22.78;35.04
64713;BME280;51140;45.340;5.980;2023-08-07T10:34:58;99158.66;;;21.24;34.47
64713;BME280;51140;45.340;5.980;2023-08-07T10:37:43;99092.06;;;21.89;35.47
64713;BME280;51140;45.340;5.980;2023-08-07T10:40:09;99132.41;;;21.86;34.47
64713;BME280;51140;45.340;5.980;2023-08-07T10:43:10;99034.81;;;22.56;38.18
64713;BME280;51140;45.340;5.980;2023-08-07T10:45:36;99097.00;;;23.07;35.14
64713;BME280;51140;45.340;5.980;2023-08-07T10:50:31;99140.38;;;22.90;34.14
64713;BME280;51140;45.340;5.980;2023-08-07T10:53:00;99092.19;;;23.68;34.59
64713;BME280;51140;45.340;5.980;2023-08-07T10:55:25;99136.03;;;22.29;34.82
64713;BME280;51140;45.340;5.980;2023-08-07T10:57:52;99104.22;;;23.50;34.47
64713;BME280;51140;45.340;5.980;2023-08-07T11:00:25;99103.56;;;23.53;34.24
64713;BME280;51140;45.340;5.980;2023-08-07T11:02:52;99084.22;;;24.21;35.01
64713;BME280;51140;45.340;5.980;2023-08-07T11:05:17;99115.19;;;24.20;34.29
64713;BME280;51140;45.340;5.980;2023-08-07T11:07:45;99170.31;;;24.33;32.15
64713;BME280;51140;45.340;5.980;2023-08-07T11:10:13;99126.22;;;24.15;34.96
64713;BME280;51140;45.340;5.980;2023-08-07T11:12:41;99098.78;;;24.37;33.39
64713;BME280;51140;45.340;5.980;2023-08-07T11:15:11;99149.13;;;22.78;33.75
64713;BME280;51140;45.340;5.980;2023-08-07T11:17:37;99074.22;;;23.84;35.39
64713;BME280;51140;45.340;5.980;2023-08-07T11:20:03;99093.97;;;24.22;34.97
64713;BME280;51140;45.340;5.980;2023-08-07T11:22:29;99117.50;;;24.10;34.38
64713;BME280;51140;45.340;5.980;2023-08-07T11:24:55;99098.06;;;24.28;34.79
64713;BME280;51140;45.340;5.980;2023-08-07T11:27:23;99161.84;;;23.04;32.55
64713;BME280;51140;45.340;5.980;2023-08-07T11:29:48;99147.38;;;23.63;32.81
64713;BME280;51140;45.340;5.980;2023-08-07T11:32:14;99144.56;;;23.51;33.44
64713;BME280;51140;45.340;5.980;2023-08-07T11:34:40;99213.47;;;23.07;31.17
64713;BME280;51140;45.340;5.980;2023-08-07T11:37:05;99184.00;;;23.14;32.30
64713;BME280;51140;45.340;5.980;2023-08-07T11:39:31;99197.69;;;22.75;32.31
64713;BME280;51140;45.340;5.980;2023-08-07T11:41:56;99111.06;;;23.56;34.38
64713;BME280;51140;45.340;5.980;2023-08-07T11:44:22;99133.81;;;23.63;35.02
64713;BME280;51140;45.340;5.980;2023-08-07T11:46:50;99126.78;;;23.71;33.78
64713;BME280;51140;45.340;5.980;2023-08-07T11:49:15;99180.78;;;23.12;32.10
64713;BME280;51140;45.340;5.980;2023-08-07T11:51:41;99008.00;;;24.14;36.94
64713;BME280;51140;45.340;5.980;2023-08-07T11:54:06;99065.38;;;24.25;35.47
64713;BME280;51140;45.340;5.980;2023-08-07T11:56:32;99192.69;;;23.63;32.08
64713;BME280;51140;45.340;5.980;2023-08-07T11:58:58;99066.78;;;24.02;34.57
64713;BME280;51140;45.340;5.980;2023-08-07T12:01:25;99166.22;;;23.60;32.09
64713;BME280;51140;45.340;5.980;2023-08-07T12:04:08;99107.00;;;24.00;34.23
64713;BME280;51140;45.340;5.980;2023-08-07T12:06:35;99165.00;;;23.40;32.07
64713;BME280;51140;45.340;5.980;2023-08-07T12:09:02;99152.34;;;23.53;32.69
64713;BME280;51140;45.340;5.980;2023-08-07T12:11:29;99170.63;;;22.75;31.83
64713;BME280;51140;45.340;5.980;2023-08-07T12:13:54;99138.41;;;23.16;34.45
64713;BME280;51140;45.340;5.980;2023-08-07T12:16:20;99148.41;;;23.42;31.94
64713;BME280;51140;45.340;5.980;2023-08-07T12:18:50;99104.53;;;24.15;32.79
64713;BME280;51140;45.340;5.980;2023-08-07T12:21:21;99141.56;;;23.82;31.86
64713;BME280;51140;45.340;5.980;2023-08-07T12:23:49;99125.41;;;23.56;33.45
64713;BME280;51140;45.340;5.980;2023-08-07T12:26:15;99163.03;;;23.49;31.70
64713;BME280;51140;45.340;5.980;2023-08-07T12:28:40;99135.19;;;23.31;32.83
64713;BME280;51140;45.340;5.980;2023-08-07T12:31:06;99161.69;;;22.83;32.55
64713;BME280;51140;45.340;5.980;2023-08-07T12:33:35;99142.09;;;22.86;32.48
64713;BME280;51140;45.340;5.980;2023-08-07T12:36:01;99137.13;;;23.22;31.70
64713;BME280;51140;45.340;5.980;2023-08-07T12:38:27;99149.75;;;23.01;32.20
64713;BME280;51140;45.340;5.980;2023-08-07T12:40:52;99053.03;;;23.57;35.47
64713;BME280;51140;45.340;5.980;2023-08-07T12:43:18;99126.88;;;23.45;33.22
64713;BME280;51140;45.340;5.980;2023-08-07T12:45:43;99155.25;;;23.48;31.30
64713;BME280;51140;45.340;5.980;2023-08-07T12:48:09;99140.59;;;23.49;31.94
64713;BME280;51140;45.340;5.980;2023-08-07T12:50:35;99013.66;;;24.01;34.21
64713;BME280;51140;45.340;5.980;2023-08-07T12:53:01;99033.53;;;24.34;34.13
64713;BME280;51140;45.340;5.980;2023-08-07T12:55:27;99054.88;;;24.56;33.88
64713;BME280;51140;45.340;5.980;2023-08-07T12:57:54;99164.22;;;24.15;31.18
64713;BME280;51140;45.340;5.980;2023-08-07T13:00:20;99169.34;;;23.70;31.65
64713;BME280;51140;45.340;5.980;2023-08-07T13:02:47;99153.66;;;23.38;31.46